sensor_id;sensor_type;location;lat;lon;timestamp;pressure;altitude;pressure_sealevel;temperature;humidity
76046;BME280;64741;41.730;44.788;2023-07-22T00:00:43;989.2;;;30.1;40.9
76046;BME280;64741;41.730;44.788;2023-07-22T00:05:43;989.2;;;30.1;40.8
76046;BME280;64741;41.730;44.788;2023-07-22T00:10:43;989.2;;;30.1;40.7
76046;BME280;64741;41.730;44.788;2023-07-22T00:15:43;989.2;;;30.1;40.5
76046;BME280;64741;41.730;44.788;2023-07-22T00:20:31;989.2;;;30.1;40.3
76046;BME280;64741;41.730;44.788;2023-07-22T00:25:47;989.1;;;30.1;40.2
76046;BME280;64741;41.730;44.788;2023-07-22T00:30:39;989.2;;;30.1;40.1
76046;BME280;64741;41.730;44.788;2023-07-22T00:35:46;989.1;;;30.1;40
76046;BME280;64741;41.730;44.788;2023-07-22T00:40:47;989.1;;;30.1;39.9
76046;BME280;64741;41.730;44.788;2023-07-22T00:45:53;989.1;;;30;40.1
76046;BME280;64741;41.730;44.788;2023-07-22T00:50:43;989.1;;;29.9;40.3
76046;BME280;64741;41.730;44.788;2023-07-22T00:55:45;989.2;;;29.9;40.3
76046;BME280;64741;41.730;44.788;2023-07-22T01:00:47;989.2;;;29.9;40.4
76046;BME280;64741;41.730;44.788;2023-07-22T01:05:47;989.2;;;29.8;40.4
76046;BME280;64741;41.730;44.788;2023-07-22T01:10:43;989.2;;;29.9;40.3
76046;BME280;64741;41.730;44.788;2023-07-22T01:15:29;989.2;;;29.9;40.2
76046;BME280;64741;41.730;44.788;2023-07-22T01:20:53;989.2;;;29.9;40.4
76046;BME280;64741;41.730;44.788;2023-07-22T01:25:47;989.3;;;29.9;40.4
76046;BME280;64741;41.730;44.788;2023-07-22T01:30:45;989.3;;;29.9;40.4
76046;BME280;64741;41.730;44.788;2023-07-22T01:35:43;989.3;;;29.9;40.3
76046;BME280;64741;41.730;44.788;2023-07-22T01:40:53;989.3;;;29.9;40.3
76046;BME280;64741;41.730;44.788;2023-07-22T01:45:45;989.4;;;29.9;40.3
76046;BME280;64741;41.730;44.788;2023-07-22T01:50:47;989.4;;;29.8;40.2
76046;BME280;64741;41.730;44.788;2023-07-22T01:55:43;989.4;;;29.8;40.2
76046;BME280;64741;41.730;44.788;2023-07-22T02:00:48;989.4;;;29.8;40.1
76046;BME280;64741;41.730;44.788;2023-07-22T02:05:53;989.5;;;29.7;40.1
76046;BME280;64741;41.730;44.788;2023-07-22T02:10:47;989.5;;;29.7;40.2
76046;BME280;64741;41.730;44.788;2023-07-22T02:15:53;989.5;;;29.6;40.2
76046;BME280;64741;41.730;44.788;2023-07-22T02:20:45;989.6;;;29.6;40.1
76046;BME280;64741;41.730;44.788;2023-07-22T02:25:53;989.6;;;29.5;40.1
76046;BME280;64741;41.730;44.788;2023-07-22T02:30:43;989.6;;;29.5;40.1
76046;BME280;64741;41.730;44.788;2023-07-22T02:35:47;989.7;;;29.4;40.1
76046;BME280;64741;41.730;44.788;2023-07-22T02:40:37;989.7;;;29.4;40.1
76046;BME280;64741;41.730;44.788;2023-07-22T02:45:43;989.7;;;29.4;40
76046;BME280;64741;41.730;44.788;2023-07-22T02:50:47;989.7;;;29.4;39.9
76046;BME280;64741;41.730;44.788;2023-07-22T02:55:47;989.7;;;29.4;39.9
76046;BME280;64741;41.730;44.788;2023-07-22T03:00:53;989.8;;;29.4;39.8
76046;BME280;64741;41.730;44.788;2023-07-22T03:05:45;989.8;;;29.4;39.8
76046;BME280;64741;41.730;44.788;2023-07-22T03:10:53;989.8;;;29.4;39.8
76046;BME280;64741;41.730;44.788;2023-07-22T03:15:53;989.8;;;29.3;39.7
76046;BME280;64741;41.730;44.788;2023-07-22T03:20:43;989.8;;;29.3;39.7
76046;BME280;64741;41.730;44.788;2023-07-22T03:25:46;989.8;;;29.3;39.8
76046;BME280;64741;41.730;44.788;2023-07-22T03:30:47;989.8;;;29.3;39.9
76046;BME280;64741;41.730;44.788;2023-07-22T03:35:53;989.9;;;29.3;40
76046;BME280;64741;41.730;44.788;2023-07-22T03:40:37;989.8;;;29.3;40
76046;BME280;64741;41.730;44.788;2023-07-22T03:45:47;989.8;;;29.3;40
76046;BME280;64741;41.730;44.788;2023-07-22T03:50:35;989.9;;;29.3;40
76046;BME280;64741;41.730;44.788;2023-07-22T03:55:53;989.9;;;29.3;40
76046;BME280;64741;41.730;44.788;2023-07-22T04:00:47;989.9;;;29.3;39.9
76046;BME280;64741;41.730;44.788;2023-07-22T04:05:52;989.9;;;29.3;39.8
76046;BME280;64741;41.730;44.788;2023-07-22T04:10:50;989.9;;;29.3;39.6
76046;BME280;64741;41.730;44.788;2023-07-22T04:15:45;989.8;;;29.4;39.5
76046;BME280;64741;41.730;44.788;2023-07-22T04:20:47;989.8;;;29.4;39.4
76046;BME280;64741;41.730;44.788;2023-07-22T04:25:44;989.8;;;29.4;39.1
76046;BME280;64741;41.730;44.788;2023-07-22T04:30:54;989.8;;;29.4;39.1
76046;BME280;64741;41.730;44.788;2023-07-22T04:35:45;989.8;;;29.4;39
76046;BME280;64741;41.730;44.788;2023-07-22T04:40:43;989.8;;;29.5;39
76046;BME280;64741;41.730;44.788;2023-07-22T04:45:53;989.8;;;29.5;39
76046;BME280;64741;41.730;44.788;2023-07-22T04:50:45;989.8;;;29.5;39.1
76046;BME280;64741;41.730;44.788;2023-07-22T04:55:53;989.8;;;29.6;38.8
76046;BME280;64741;41.730;44.788;2023-07-22T05:00:43;989.9;;;29.6;38.8
76046;BME280;64741;41.730;44.788;2023-07-22T05:05:29;989.9;;;29.7;38.8
76046;BME280;64741;41.730;44.788;2023-07-22T05:10:43;989.9;;;29.7;38.7
76046;BME280;64741;41.730;44.788;2023-07-22T05:15:43;989.9;;;29.7;38.7
76046;BME280;64741;41.730;44.788;2023-07-22T05:20:47;989.9;;;29.8;38.8
76046;BME280;64741;41.730;44.788;2023-07-22T05:25:50;989.9;;;29.8;38.6
76046;BME280;64741;41.730;44.788;2023-07-22T05:30:55;989.8;;;29.8;38.4
76046;BME280;64741;41.730;44.788;2023-07-22T05:35:43;989.9;;;29.8;38.6
76046;BME280;64741;41.730;44.788;2023-07-22T05:40:29;989.8;;;29.9;38.6
76046;BME280;64741;41.730;44.788;2023-07-22T05:45:53;989.8;;;29.9;38.7
76046;BME280;64741;41.730;44.788;2023-07-22T05:50:43;989.8;;;29.9;38.5
76046;BME280;64741;41.730;44.788;2023-07-22T05:55:45;989.8;;;29.9;38.5
76046;BME280;64741;41.730;44.788;2023-07-22T06:00:47;989.8;;;29.9;38.6
76046;BME280;64741;41.730;44.788;2023-07-22T06:05:47;989.7;;;29.9;38.9
76046;BME280;64741;41.730;44.788;2023-07-22T06:10:43;989.7;;;29.9;39.4
76046;BME280;64741;41.730;44.788;2023-07-22T06:15:47;989.7;;;29.9;39
76046;BME280;64741;41.730;44.788;2023-07-22T06:20:53;989.7;;;29.9;39.1
76046;BME280;64741;41.730;44.788;2023-07-22T06:25:37;989.8;;;30;39.1
76046;BME280;64741;41.730;44.788;2023-07-22T06:30:45;989.7;;;30;39.1
76046;BME280;64741;41.730;44.788;2023-07-22T06:35:43;989.6;;;30;38.9
76046;BME280;64741;41.730;44.788;2023-07-22T06:40:53;989.6;;;30.1;38.8
76046;BME280;64741;41.730;44.788;2023-07-22T06:45:45;989.6;;;30.1;38.7
76046;BME280;64741;41.730;44.788;2023-07-22T06:50:47;989.6;;;30.2;38.7
76046;BME280;64741;41.730;44.788;2023-07-22T06:55:47;989.6;;;30.2;38.7
76046;BME280;64741;41.730;44.788;2023-07-22T07:00:45;989.6;;;30.2;38.8
76046;BME280;64741;41.730;44.788;2023-07-22T07:05:51;989.6;;;30.2;38.8
76046;BME280;64741;41.730;44.788;2023-07-22T07:10:41;989.6;;;30.3;38.9
76046;BME280;64741;41.730;44.788;2023-07-22T07:15:47;989.5;;;30.3;39.1
76046;BME280;64741;41.730;44.788;2023-07-22T07:20:47;989.5;;;30.3;39.3
76046;BME280;64741;41.730;44.788;2023-07-22T07:25:53;989.4;;;30.3;39.3
76046;BME280;64741;41.730;44.788;2023-07-22T07:30:47;989.5;;;30.3;39.3
76046;BME280;64741;41.730;44.788;2023-07-22T07:35:53;989.4;;;30.4;39.2
76046;BME280;64741;41.730;44.788;2023-07-22T07:40:55;989.4;;;30.4;39.3
76046;BME280;64741;41.730;44.788;2023-07-22T07:45:43;989.3;;;30.4;39.3
76046;BME280;64741;41.730;44.788;2023-07-22T07:50:47;989.3;;;30.4;39.4
76046;BME280;64741;41.730;44.788;2023-07-22T07:55:47;989.2;;;30.4;39.2
76046;BME280;64741;41.730;44.788;2023-07-22T08:00:53;989.2;;;30.4;39.2
76046;BME280;64741;41.730;44.788;2023-07-22T08:05:47;989.2;;;30.4;39.3
76046;BME280;64741;41.730;44.788;2023-07-22T08:10:47;989.1;;;30.5;39.2
76046;BME280;64741;41.730;44.788;2023-07-22T08:15:53;989.1;;;30.5;39.1
76046;BME280;64741;41.730;44.788;2023-07-22T08:20:54;989.2;;;30.5;39.2
76046;BME280;64741;41.730;44.788;2023-07-22T08:25:47;989.1;;;30.5;39.1
76046;BME280;64741;41.730;44.788;2023-07-22T08:30:47;989;;;30.5;39.1
76046;BME280;64741;41.730;44.788;2023-07-22T08:35:47;988.9;;;30.5;39.1
76046;BME280;64741;41.730;44.788;2023-07-22T08:40:48;988.9;;;30.5;39.2
76046;BME280;64741;41.730;44.788;2023-07-22T08:45:28;988.8;;;30.5;39.2
76046;BME280;64741;41.730;44.788;2023-07-22T08:50:44;988.7;;;30.6;39.2
76046;BME280;64741;41.730;44.788;2023-07-22T08:55:47;988.7;;;30.6;39.2
76046;BME280;64741;41.730;44.788;2023-07-22T09:00:47;988.6;;;30.6;39.1
76046;BME280;64741;41.730;44.788;2023-07-22T09:05:43;988.6;;;30.6;39.2
76046;BME280;64741;41.730;44.788;2023-07-22T09:10:53;988.7;;;30.6;39.2
76046;BME280;64741;41.730;44.788;2023-07-22T09:15:47;988.6;;;30.6;39.2
76046;BME280;64741;41.730;44.788;2023-07-22T09:20:53;988.5;;;30.6;39.1
76046;BME280;64741;41.730;44.788;2023-07-22T09:25:43;988.5;;;30.7;39.1
76046;BME280;64741;41.730;44.788;2023-07-22T09:30:31;988.3;;;30.7;39.1
76046;BME280;64741;41.730;44.788;2023-07-22T09:35:44;988.3;;;30.7;39.1
76046;BME280;64741;41.730;44.788;2023-07-22T09:40:43;988.2;;;30.7;39
76046;BME280;64741;41.730;44.788;2023-07-22T09:45:47;988.2;;;30.7;39.1
76046;BME280;64741;41.730;44.788;2023-07-22T09:50:55;988.1;;;30.7;39.1
76046;BME280;64741;41.730;44.788;2023-07-22T09:55:05;988.1;;;30.7;39.1
76046;BME280;64741;41.730;44.788;2023-07-22T10:00:24;988.1;;;30.7;39.1
76046;BME280;64741;41.730;44.788;2023-07-22T10:05:47;988;;;30.7;39
76046;BME280;64741;41.730;44.788;2023-07-22T10:10:53;988;;;30.8;39.1
76046;BME280;64741;41.730;44.788;2023-07-22T10:15:43;987.9;;;30.8;39.1
76046;BME280;64741;41.730;44.788;2023-07-22T10:20:47;987.9;;;30.8;39.2
76046;BME280;64741;41.730;44.788;2023-07-22T10:25:47;987.9;;;30.8;39.2
76046;BME280;64741;41.730;44.788;2023-07-22T10:30:47;987.9;;;30.8;39.1
76046;BME280;64741;41.730;44.788;2023-07-22T10:35:43;987.8;;;30.8;39.1
76046;BME280;64741;41.730;44.788;2023-07-22T10:40:49;987.8;;;30.8;39
76046;BME280;64741;41.730;44.788;2023-07-22T10:45:54;987.7;;;30.8;38.6
76046;BME280;64741;41.730;44.788;2023-07-22T10:50:54;987.6;;;30.7;37.8
76046;BME280;64741;41.730;44.788;2023-07-22T10:56:04;987.6;;;30.7;37.4
76046;BME280;64741;41.730;44.788;2023-07-22T11:00:43;987.5;;;30.7;36.8
76046;BME280;64741;41.730;44.788;2023-07-22T11:05:53;987.5;;;30.7;36.7
76046;BME280;64741;41.730;44.788;2023-07-22T11:10:54;987.5;;;30.8;37.6
76046;BME280;64741;41.730;44.788;2023-07-22T11:15:46;987.4;;;30.8;37.8
76046;BME280;64741;41.730;44.788;2023-07-22T11:20:43;987.4;;;30.9;37.9
76046;BME280;64741;41.730;44.788;2023-07-22T11:25:47;987.4;;;31;38
76046;BME280;64741;41.730;44.788;2023-07-22T11:30:55;987.4;;;31;38.1
76046;BME280;64741;41.730;44.788;2023-07-22T11:35:47;987.4;;;31.1;38.1
76046;BME280;64741;41.730;44.788;2023-07-22T11:40:55;987.3;;;31.1;38.1
76046;BME280;64741;41.730;44.788;2023-07-22T11:45:47;987.3;;;31.2;38.1
76046;BME280;64741;41.730;44.788;2023-07-22T11:50:58;987.2;;;31.2;38.2
76046;BME280;64741;41.730;44.788;2023-07-22T11:55:50;987.1;;;31.2;38.1
76046;BME280;64741;41.730;44.788;2023-07-22T12:01:03;987.1;;;31.2;38.2
76046;BME280;64741;41.730;44.788;2023-07-22T12:05:55;987.1;;;31.3;38.2
76046;BME280;64741;41.730;44.788;2023-07-22T12:10:53;987.1;;;31.3;38.2
76046;BME280;64741;41.730;44.788;2023-07-22T12:15:58;987.1;;;31.3;38.3
76046;BME280;64741;41.730;44.788;2023-07-22T12:20:47;987.1;;;31.3;38.4
76046;BME280;64741;41.730;44.788;2023-07-22T12:25:55;987;;;31.3;38.5
76046;BME280;64741;41.730;44.788;2023-07-22T12:30:49;987;;;31.4;38.6
76046;BME280;64741;41.730;44.788;2023-07-22T12:35:47;987;;;31.4;38.6
76046;BME280;64741;41.730;44.788;2023-07-22T12:40:55;987;;;31.4;38.7
76046;BME280;64741;41.730;44.788;2023-07-22T12:45:55;986.9;;;31.4;38.7
76046;BME280;64741;41.730;44.788;2023-07-22T12:50:49;987;;;31.4;38.6
76046;BME280;64741;41.730;44.788;2023-07-22T12:55:49;987;;;31.4;38.7
76046;BME280;64741;41.730;44.788;2023-07-22T13:00:49;987;;;31.4;38.6
76046;BME280;64741;41.730;44.788;2023-07-22T13:05:41;987;;;31.4;38.7
76046;BME280;64741;41.730;44.788;2023-07-22T13:10:47;987;;;31.5;38.7
76046;BME280;64741;41.730;44.788;2023-07-22T13:15:45;986.9;;;31.5;38.5
76046;BME280;64741;41.730;44.788;2023-07-22T13:20:47;986.9;;;31.5;38.5
76046;BME280;64741;41.730;44.788;2023-07-22T13:25:06;986.9;;;31.5;38.4
76046;BME280;64741;41.730;44.788;2023-07-22T13:30:45;986.9;;;31.5;38.3
76046;BME280;64741;41.730;44.788;2023-07-22T13:35:56;986.7;;;31.5;38.3
76046;BME280;64741;41.730;44.788;2023-07-22T13:40:49;986.7;;;31.5;38.3
76046;BME280;64741;41.730;44.788;2023-07-22T13:45:56;986.6;;;31.5;38.3
76046;BME280;64741;41.730;44.788;2023-07-22T13:50:45;986.6;;;31.5;38.3
76046;BME280;64741;41.730;44.788;2023-07-22T13:55:45;986.6;;;31.5;38.3
76046;BME280;64741;41.730;44.788;2023-07-22T14:00:45;986.6;;;31.5;38.3
76046;BME280;64741;41.730;44.788;2023-07-22T14:05:45;986.6;;;31.5;38.2
76046;BME280;64741;41.730;44.788;2023-07-22T14:10:33;986.5;;;31.5;38.2
76046;BME280;64741;41.730;44.788;2023-07-22T14:15:47;986.6;;;31.5;38.2
76046;BME280;64741;41.730;44.788;2023-07-22T14:20:55;986.6;;;31.5;38
76046;BME280;64741;41.730;44.788;2023-07-22T14:25:29;986.6;;;31.5;38.2
76046;BME280;64741;41.730;44.788;2023-07-22T14:30:47;986.7;;;31.5;38.3
76046;BME280;64741;41.730;44.788;2023-07-22T14:35:55;986.7;;;31.5;38.8
76046;BME280;64741;41.730;44.788;2023-07-22T14:40:45;986.7;;;31.5;39
76046;BME280;64741;41.730;44.788;2023-07-22T14:45:49;986.7;;;31.5;38.9
76046;BME280;64741;41.730;44.788;2023-07-22T14:50:47;986.8;;;31.6;39
76046;BME280;64741;41.730;44.788;2023-07-22T14:55:47;986.8;;;31.6;39.6
76046;BME280;64741;41.730;44.788;2023-07-22T15:00:17;986.8;;;31.6;39.8
76046;BME280;64741;41.730;44.788;2023-07-22T15:05:47;986.8;;;31.7;40
76046;BME280;64741;41.730;44.788;2023-07-22T15:10:55;986.9;;;31.7;40.1
76046;BME280;64741;41.730;44.788;2023-07-22T15:15:41;986.9;;;31.7;40.1
76046;BME280;64741;41.730;44.788;2023-07-22T15:20:50;987;;;31.7;39.6
76046;BME280;64741;41.730;44.788;2023-07-22T15:25:45;987;;;31.7;39.4
76046;BME280;64741;41.730;44.788;2023-07-22T15:30:55;986.9;;;31.7;39.2
76046;BME280;64741;41.730;44.788;2023-07-22T15:35:49;987;;;31.7;39.2
76046;BME280;64741;41.730;44.788;2023-07-22T15:40:47;987;;;31.7;39.1
76046;BME280;64741;41.730;44.788;2023-07-22T15:45:45;986.9;;;31.7;39
76046;BME280;64741;41.730;44.788;2023-07-22T15:50:47;987;;;31.7;39.1
76046;BME280;64741;41.730;44.788;2023-07-22T15:55:55;987.1;;;31.7;39.2
76046;BME280;64741;41.730;44.788;2023-07-22T16:00:37;987.1;;;31.7;39.4
76046;BME280;64741;41.730;44.788;2023-07-22T16:05:11;987.2;;;31.7;39.5
76046;BME280;64741;41.730;44.788;2023-07-22T16:10:49;987.3;;;31.7;39.5
76046;BME280;64741;41.730;44.788;2023-07-22T16:15:41;987.4;;;31.7;39.6
76046;BME280;64741;41.730;44.788;2023-07-22T16:20:45;987.4;;;31.6;39.5
76046;BME280;64741;41.730;44.788;2023-07-22T16:25:39;987.4;;;31.6;39.8
76046;BME280;64741;41.730;44.788;2023-07-22T16:30:49;987.5;;;31.6;39.7
76046;BME280;64741;41.730;44.788;2023-07-22T16:35:37;987.6;;;31.6;39.5
76046;BME280;64741;41.730;44.788;2023-07-22T16:40:50;987.6;;;31.6;39.6
76046;BME280;64741;41.730;44.788;2023-07-22T16:45:49;987.7;;;31.6;39.6
76046;BME280;64741;41.730;44.788;2023-07-22T16:50:55;987.8;;;31.6;39.6
76046;BME280;64741;41.730;44.788;2023-07-22T16:55:51;987.9;;;31.6;39.7
76046;BME280;64741;41.730;44.788;2023-07-22T17:00:55;988;;;31.6;39.7
76046;BME280;64741;41.730;44.788;2023-07-22T17:05:55;988;;;31.5;40
76046;BME280;64741;41.730;44.788;2023-07-22T17:10:47;988;;;31.5;40.6
76046;BME280;64741;41.730;44.788;2023-07-22T17:15:51;988.2;;;31.5;40.9
76046;BME280;64741;41.730;44.788;2023-07-22T17:20:49;988.3;;;31.5;41.1
76046;BME280;64741;41.730;44.788;2023-07-22T17:25:41;988.4;;;31.6;41.1
76046;BME280;64741;41.730;44.788;2023-07-22T17:30:51;988.5;;;31.6;41.2
76046;BME280;64741;41.730;44.788;2023-07-22T17:35:49;988.6;;;31.6;40.8
76046;BME280;64741;41.730;44.788;2023-07-22T17:40:55;988.6;;;31.5;39.3
76046;BME280;64741;41.730;44.788;2023-07-22T17:45:37;988.7;;;31.4;38.4
76046;BME280;64741;41.730;44.788;2023-07-22T17:50:51;988.8;;;31.3;37.9
76046;BME280;64741;41.730;44.788;2023-07-22T17:55:51;988.9;;;31.3;38.2
76046;BME280;64741;41.730;44.788;2023-07-22T18:00:51;988.9;;;31.3;38.7
76046;BME280;64741;41.730;44.788;2023-07-22T18:05:51;989;;;31.3;38.8
76046;BME280;64741;41.730;44.788;2023-07-22T18:10:49;989.1;;;31.4;39.1
76046;BME280;64741;41.730;44.788;2023-07-22T18:15:47;989.1;;;31.4;39.4
76046;BME280;64741;41.730;44.788;2023-07-22T18:20:11;989.1;;;31.4;39.5
76046;BME280;64741;41.730;44.788;2023-07-22T18:25:51;989.2;;;31.4;40
76046;BME280;64741;41.730;44.788;2023-07-22T18:30:49;989.2;;;31.4;40
76046;BME280;64741;41.730;44.788;2023-07-22T18:35:55;989.2;;;31.4;40.1
76046;BME280;64741;41.730;44.788;2023-07-22T18:40:52;989.2;;;31.4;40.1
76046;BME280;64741;41.730;44.788;2023-07-22T18:45:55;989.3;;;31.4;40.2
76046;BME280;64741;41.730;44.788;2023-07-22T18:50:53;989.3;;;31.4;40.3
76046;BME280;64741;41.730;44.788;2023-07-22T18:55:47;989.3;;;31.4;40.2
76046;BME280;64741;41.730;44.788;2023-07-22T19:00:39;989.4;;;31.4;40.2
76046;BME280;64741;41.730;44.788;2023-07-22T19:05:48;989.4;;;31.4;40.3
76046;BME280;64741;41.730;44.788;2023-07-22T19:10:44;989.5;;;31.4;40.3
76046;BME280;64741;41.730;44.788;2023-07-22T19:15:51;989.5;;;31.4;40.4
76046;BME280;64741;41.730;44.788;2023-07-22T19:20:54;989.5;;;31.4;40.3
76046;BME280;64741;41.730;44.788;2023-07-22T19:25:45;989.5;;;31.4;40.4
76046;BME280;64741;41.730;44.788;2023-07-22T19:30:51;989.5;;;31.4;40.3
76046;BME280;64741;41.730;44.788;2023-07-22T19:36:01;989.5;;;31.4;40.4
76046;BME280;64741;41.730;44.788;2023-07-22T19:40:45;989.7;;;31.4;40.5
76046;BME280;64741;41.730;44.788;2023-07-22T19:45:58;989.7;;;31.4;40.4
76046;BME280;64741;41.730;44.788;2023-07-22T19:50:33;989.6;;;31.4;40.6
76046;BME280;64741;41.730;44.788;2023-07-22T19:55:49;989.6;;;31.4;40.9
76046;BME280;64741;41.730;44.788;2023-07-22T20:00:45;989.7;;;31.3;41
76046;BME280;64741;41.730;44.788;2023-07-22T20:05:49;989.7;;;31.3;41
76046;BME280;64741;41.730;44.788;2023-07-22T20:10:53;989.7;;;31.3;41.2
76046;BME280;64741;41.730;44.788;2023-07-22T20:15:53;989.7;;;31.2;41.7
76046;BME280;64741;41.730;44.788;2023-07-22T20:20:49;989.7;;;31.2;41.6
76046;BME280;64741;41.730;44.788;2023-07-22T20:25:45;989.7;;;31.2;41.8
76046;BME280;64741;41.730;44.788;2023-07-22T20:30:53;989.7;;;31.2;41.8
76046;BME280;64741;41.730;44.788;2023-07-22T20:35:52;989.7;;;31.2;42
76046;BME280;64741;41.730;44.788;2023-07-22T20:40:49;989.7;;;31.2;42.3
76046;BME280;64741;41.730;44.788;2023-07-22T20:45:45;989.7;;;31.2;42.5
76046;BME280;64741;41.730;44.788;2023-07-22T20:50:52;989.6;;;31.2;42.5
76046;BME280;64741;41.730;44.788;2023-07-22T20:55:39;989.6;;;31.1;42.6
76046;BME280;64741;41.730;44.788;2023-07-22T21:00:51;989.7;;;31.1;42.6
76046;BME280;64741;41.730;44.788;2023-07-22T21:05:53;989.7;;;31.1;42.6
76046;BME280;64741;41.730;44.788;2023-07-22T21:10:50;989.7;;;31.1;42.7
76046;BME280;64741;41.730;44.788;2023-07-22T21:15:53;989.8;;;31.1;42.7
76046;BME280;64741;41.730;44.788;2023-07-22T21:20:49;989.8;;;31.1;42.7
76046;BME280;64741;41.730;44.788;2023-07-22T21:25:54;989.9;;;31.1;42.7
76046;BME280;64741;41.730;44.788;2023-07-22T21:30:53;989.9;;;31.1;42.9
76046;BME280;64741;41.730;44.788;2023-07-22T21:35:45;989.9;;;31.1;42.9
76046;BME280;64741;41.730;44.788;2023-07-22T21:40:50;990;;;31.1;42.9
76046;BME280;64741;41.730;44.788;2023-07-22T21:45:49;990;;;31.1;42.8
76046;BME280;64741;41.730;44.788;2023-07-22T21:50:53;990;;;31.1;42.9
76046;BME280;64741;41.730;44.788;2023-07-22T21:55:49;990;;;31.1;43
76046;BME280;64741;41.730;44.788;2023-07-22T22:00:49;989.9;;;31.1;43.1
76046;BME280;64741;41.730;44.788;2023-07-22T22:05:56;989.8;;;31.1;42.9
76046;BME280;64741;41.730;44.788;2023-07-22T22:10:53;989.7;;;31.1;43.1
76046;BME280;64741;41.730;44.788;2023-07-22T22:15:49;989.7;;;31.1;43.3
76046;BME280;64741;41.730;44.788;2023-07-22T22:20:49;989.7;;;31.1;43.4
76046;BME280;64741;41.730;44.788;2023-07-22T22:25:49;989.7;;;31;43.3
76046;BME280;64741;41.730;44.788;2023-07-22T22:30:49;989.6;;;31.1;43.2
76046;BME280;64741;41.730;44.788;2023-07-22T22:35:35;989.7;;;31;43.4
76046;BME280;64741;41.730;44.788;2023-07-22T22:40:31;989.7;;;31;43.4
76046;BME280;64741;41.730;44.788;2023-07-22T22:45:49;989.7;;;31;43.5
76046;BME280;64741;41.730;44.788;2023-07-22T22:50:49;989.8;;;30.9;43.6
76046;BME280;64741;41.730;44.788;2023-07-22T22:55:45;989.7;;;30.9;43.8
76046;BME280;64741;41.730;44.788;2023-07-22T23:00:53;989.7;;;30.9;43.9
76046;BME280;64741;41.730;44.788;2023-07-22T23:05:49;989.7;;;30.9;43.8
76046;BME280;64741;41.730;44.788;2023-07-22T23:10:53;989.7;;;30.9;44
76046;BME280;64741;41.730;44.788;2023-07-22T23:15:45;989.7;;;30.9;43.9
76046;BME280;64741;41.730;44.788;2023-07-22T23:20:43;989.7;;;30.9;43.8
76046;BME280;64741;41.730;44.788;2023-07-22T23:25:31;989.7;;;30.9;43.9
76046;BME280;64741;41.730;44.788;2023-07-22T23:30:43;989.7;;;30.9;43.9
76046;BME280;64741;41.730;44.788;2023-07-22T23:35:51;989.7;;;30.9;43.9
76046;BME280;64741;41.730;44.788;2023-07-22T23:40:50;989.6;;;30.9;43.7
76046;BME280;64741;41.730;44.788;2023-07-22T23:45:54;989.6;;;30.9;43.8
76046;BME280;64741;41.730;44.788;2023-07-22T23:50:46;989.6;;;30.9;43.8
76046;BME280;64741;41.730;44.788;2023-07-22T23:55:50;989.6;;;30.9;43.8
